• Join FlightAware (Why Join?)
  • Login
  • US Flag 
01:59PM EDT


 

Airport Tracker/Info


-or-


 

Live Flight TrackerFlight Track Log ✈ UAL1152 ✈ 18-Apr-2012 ✈ KRSW - KIAH

Flight Track Log - Related Links

Times and Time Zones

All times are in EDT time to prevent confusion due to time zone crossing. See the UAL1152 flight status page for this flight to view local times or setup timezone preferences in your user account.

Time Position Orientation Groundspeed Altitude Reporting Facility
EDT Latitude Longitude Course Direction KTS MPH feet Rate Location/Type
06:37AM 26.5444 -81.7815 138° Southeast  Level FlightAware Approximate
06:38AM 26.4612 -81.8416 84° East  Level FlightAware Approximate
06:39AM 26.4739 -81.7114 233° Southwest 239 275 5,600  Level Miami Center
06:40AM 26.4278 -81.7792 263° West 250 288 9,200 3,000 Climbing Miami Center
06:41AM 26.4183 -81.8669 295° West 255 293 11,600 2,640 Climbing Miami Center
06:42AM 26.4608 -81.9706 292° West 295 339 14,500 3,120 Climbing Miami Center
06:43AM 26.5006 -82.0814 294° West 343 395 17,900 2,940 Climbing Miami Center
06:44AM 26.5428 -82.1878 293° West 363 418 20,400 2,460 Climbing Miami Center
06:45AM 26.5864 -82.3033 292° West 390 449 22,900 1,860 Climbing Miami Center
06:46AM 26.6300 -82.4239 293° West 405 466 24,200 1,620 Climbing Miami Center
06:47AM 26.6792 -82.5517 292° West 433 498 26,200 1,500 Climbing Miami Center
06:48AM 26.7261 -82.6842 293° West 449 517 27,200 1,680 Climbing Miami Center
06:49AM 26.7750 -82.8144 291° West 455 524 29,600 2,400 Climbing Miami Center
06:50AM 26.8197 -82.9447 292° West 455 524 32,000 2,160 Climbing Miami Center
06:51AM 26.8647 -83.0678 291° West 448 516 34,000 2,340 Climbing Miami Center
06:52AM 26.9056 -83.1842 292° West 428 493 36,700 2,040 Climbing Miami Center
06:53AM 26.9444 -83.2933 293° West 397 457 38,100 900 Climbing Miami Center
06:54AM 26.9875 -83.4075 291° West 391 450 38,600 600 Climbing Miami Center
06:55AM 27.0261 -83.5214 293° West 385 443 39,300 600 Climbing Miami Center
06:56AM 27.0725 -83.6453 291° West 385 443 39,900 300 Climbing Miami Center
06:57AM 27.1128 -83.7619 292° West 396 456 39,900  Level Miami Center
06:58AM 27.1550 -83.8808 292° West 396 456 39,900  Level Miami Center
06:59AM 27.1972 -83.9978 290° West 401 461 39,900  Level Miami Center
07:00AM 27.2353 -84.1144 293° West 396 456 39,900  Level Miami Center
07:01AM 27.2794 -84.2317 292° West 396 456 39,900  Level Miami Center
07:02AM 27.3214 -84.3486 291° West 396 456 39,900  Level Miami Center
07:04AM 27.3925 -84.5539 291° West 413 475 39,900  Level Jacksonville Center
07:05AM 27.4325 -84.6714 293° West 413 475 39,900  Level Jacksonville Center
07:06AM 27.4767 -84.7914 290° West 413 475 39,900  Level Jacksonville Center
07:07AM 27.5147 -84.9067 293° West 413 475 39,900  Level Jacksonville Center
07:08AM 27.5586 -85.0247 288° West 408 470 39,900  Level Jacksonville Center
07:09AM 27.5900 -85.1353 291° West 408 470 39,900  Level Jacksonville Center
07:10AM 27.6317 -85.2581 290° West 385 443 39,900  Level Jacksonville Center
07:11AM 27.6653 -85.3642 292° West 392 451 39,900  Level Jacksonville Center
07:12AM 27.7047 -85.4753 290° West 387 445 39,900  Level Jacksonville Center
07:13AM 27.7439 -85.5958 291° West 394 453 39,900  Level Jacksonville Center
07:14AM 27.7833 -85.7094 292° West 394 453 39,900  Level Jacksonville Center
07:15AM 27.8225 -85.8183 290° West 389 448 39,900  Level Jacksonville Center
07:16AM 27.8594 -85.9344 292° West 394 453 39,900  Level Jacksonville Center
07:17AM 27.9006 -86.0508 290° West 395 455 39,900  Level Jacksonville Center
07:18AM 27.9372 -86.1669 290° West 395 455 39,900  Level Jacksonville Center
07:19AM 27.9758 -86.2856 291° West 389 448 39,900  Level Jacksonville Center
07:20AM 28.0183 -86.4094 292° West 409 471 39,900  Level Jacksonville Center
07:21AM 28.0572 -86.5164 288° West 404 465 39,900  Level Jacksonville Center
07:22AM 28.0914 -86.6331 291° West 404 465 39,900  Level Jacksonville Center
07:23AM 28.1317 -86.7497 290° West 402 463 39,900  Level Jacksonville Center
07:24AM 28.1697 -86.8711 291° West 402 463 39,900  Level Jacksonville Center
07:26AM 28.2561 -87.1253 289° West 405 466 39,900  Level Houston Center
07:27AM 28.2864 -87.2256 291° West 400 460 39,900  Level Houston Center
07:28AM 28.3281 -87.3489 289° West 386 444 39,900  Level Houston Center
07:29AM 28.3631 -87.4656 291° West 407 468 39,900  Level Houston Center
07:30AM 28.4042 -87.5867 287° West 413 475 39,900  Level Houston Center
07:31AM 28.4344 -87.6964 292° West 387 445 39,900  Level Houston Center
07:32AM 28.4822 -87.8294 288° West 410 472 39,900  Level Houston Center
07:33AM 28.5147 -87.9442 292° West 405 466 39,900  Level Houston Center
07:34AM 28.5597 -88.0725 286° West 426 490 39,900  Level Houston Center
07:35AM 28.5922 -88.1992 290° West 402 463 39,900  Level Houston Center
07:36AM 28.6308 -88.3186 288° West 402 463 39,900  Level Houston Center
07:37AM 28.6672 -88.4456 291° West 402 463 39,900  Level Houston Center
07:38AM 28.7075 -88.5650 283° West 407 468 39,900  Level Houston Center
07:39AM 28.7333 -88.6897 281° West 407 468 39,900  Level Houston Center
07:40AM 28.7550 -88.8219 283° West 412 474 39,900  Level Houston Center
07:41AM 28.7803 -88.9469 281° West 418 481 39,900  Level Houston Center
07:42AM 28.8039 -89.0814 283° West 418 481 39,900  Level Houston Center
07:43AM 28.8292 -89.2042 281° West 413 475 39,900  Level Houston Center
07:44AM 28.8503 -89.3339 282° West 413 475 39,900  Level Houston Center
07:45AM 28.8753 -89.4639 282° West 413 475 39,900  Level Houston Center
07:46AM 28.8983 -89.5917 282° West 413 475 39,900  Level Houston Center
07:47AM 28.9231 -89.7242 282° West 413 475 39,900  Level Houston Center
07:48AM 28.9458 -89.8519 281° West 413 475 39,900  Level Houston Center
07:49AM 28.9683 -89.9797 281° West 413 475 39,900  Level Houston Center
07:50AM 28.9906 -90.1100 282° West 413 475 39,900  Level Houston Center
07:51AM 29.0150 -90.2428 281° West 418 481 39,900  Level Houston Center
07:52AM 29.0372 -90.3731 282° West 425 489 39,900  Level Houston Center
07:53AM 29.0614 -90.5058 280° West 425 489 39,900  Level Houston Center
07:54AM 29.0814 -90.6364 282° West 425 489 39,900  Level Houston Center
07:55AM 29.1053 -90.7669 282° West 425 489 39,900  Level Houston Center
07:56AM 29.1289 -90.8975 281° West 425 489 39,900  Level Houston Center
07:57AM 29.1506 -91.0258 281° West 425 489 39,900  Level Houston Center
07:58AM 29.1719 -91.1567 304° West 425 489 39,900  Level Houston Center
07:59AM 29.2392 -91.2731 317° Northwest 416 479 39,900  Level Houston Center
08:00AM 29.3269 -91.3656 312° West 424 488 39,900  Level Houston Center
08:01AM 29.4044 -91.4631 278° West 424 488 39,900 -300 Level Houston Center
08:02AM 29.4192 -91.5872 275° West 386 444 39,300 -780 Descending Houston Center
08:03AM 29.4297 -91.7183 271° West 393 452 38,400 -900 Descending Houston Center
08:04AM 29.4317 -91.8447 273° West 398 458 37,500 -960 Descending Houston Center
08:05AM 29.4378 -91.9736 274° West 404 465 36,500 -960 Descending Houston Center
08:06AM 29.4458 -92.1025 273° West 404 465 35,600 -960 Descending Houston Center
08:07AM 29.4514 -92.2336 272° West 404 465 34,600 -960 Descending Houston Center
08:08AM 29.4550 -92.3650 274° West 404 465 33,700 -960 Descending Houston Center
08:09AM 29.4628 -92.4986 272° West 411 473 32,700 -900 Descending Houston Center
08:10AM 29.4658 -92.6344 273° West 421 484 31,900 -420 Descending Houston Center
08:11AM 29.4711 -92.7683 272° West 421 484 31,900  Level Houston Center
08:12AM 29.4742 -92.9044 273° West 421 484 31,900  Level Houston Center
08:13AM 29.4811 -93.0381 273° West 421 484 31,900  Level Houston Center
08:14AM 29.4861 -93.1694 272° West 421 484 31,900  Level Houston Center
08:15AM 29.4908 -93.3056 273° West 421 484 31,900 -180 Level Houston Center
08:16AM 29.4975 -93.4417 272° West 421 484 31,600 -1,980 Descending Houston Center
08:17AM 29.5019 -93.5753 273° West 421 484 28,000 -3,300 Descending Houston Center
08:18AM 29.5083 -93.7092 273° West 426 490 25,100 -2,940 Descending Houston Center
08:19AM 29.5147 -93.8406 272° West 421 484 22,100 -2,700 Descending Houston Center
08:20AM 29.5189 -93.9647 273° West 416 479 19,800 -2,220 Descending Houston Center
08:21AM 29.5250 -94.0867 273° West 397 457 17,700 -2,100 Descending Houston Center
08:22AM 29.5294 -94.1894 271° West 383 441 15,700 -2,280 Descending Houston Center
08:23AM 29.5311 -94.3231 290° West 359 413 13,100 -2,040 Descending Houston Center
08:24AM 29.5567 -94.4050 305° West 349 402 11,700 -1,320 Descending Houston Center
08:25AM 29.6072 -94.4875 316° Northwest 325 374 10,600 -1,200 Descending Houston Center
08:26AM 29.6642 -94.5511 315° West 304 350 9,300 -1,500 Descending Houston Center
08:27AM 29.7192 -94.6150 316° Northwest 285 328 7,700 -1,500 Descending Houston Center
08:28AM 29.7742 -94.6764 314° West 280 322 6,300 -1,380 Descending Houston Center
08:29AM 29.8250 -94.7378 314° West 274 315 5,000 -1,320 Descending Houston Center
08:30AM 29.8758 -94.7992 315° West 269 310 3,700 -960 Descending Houston Center
08:31AM 29.9428 -94.8778 296° West 266 306 3,000 -360 Descending Houston Center
08:32AM 29.9764 -94.9581 270° West 276 318 2,900 -60 Descending Houston Center
08:33AM 29.9764 -95.0419 271° West 257 296 2,900  Level Houston Center
08:34AM 29.9772 -95.0969 271° West 253 291 2,900  Level Houston Center